Time;durP1;ratioP1;P1;durP2;ratioP2;P2;SDS_P1;SDS_P2;PMS_P1;PMS_P2;Temp;Humidity;BMP_temperature;BMP_pressure;BME280_temperature;BME280_humidity;BME280_pressure;Samples;Min_cycle;Max_cycle;Signal;HPM_P1;HPM_P2
2021/01/21 00:00:08;;;;;;;4.43;0.70;;;;;;;;;;4993580;28;20113;-55
2021/01/21 00:02:34;;;;;;;3.40;0.60;;;;;;;;;;4992604;28;20029;-55
2021/01/21 00:04:59;;;;;;;7.78;1.38;;;;;;;;;;4993013;28;22051;-54
2021/01/21 00:07:25;;;;;;;10.43;0.70;;;;;;;;;;4990279;28;20043;-55
2021/01/21 00:09:51;;;;;;;5.28;0.60;;;;;;;;;;4989401;28;20046;-53
2021/01/21 00:12:17;;;;;;;8.38;0.82;;;;;;;;;;4992050;28;20051;-56
2021/01/21 00:14:43;;;;;;;6.13;0.73;;;;;;;;;;4995706;28;20043;-57
2021/01/21 00:17:09;;;;;;;4.20;0.65;;;;;;;;;;4993694;28;20080;-56
2021/01/21 00:19:35;;;;;;;11.20;0.70;;;;;;;;;;4993635;28;20213;-53
2021/01/21 00:22:00;;;;;;;2.72;0.68;;;;;;;;;;4995779;28;20173;-55
2021/01/21 00:24:26;;;;;;;2.15;0.60;;;;;;;;;;4994481;28;20077;-53
2021/01/21 00:26:52;;;;;;;4.63;0.93;;;;;;;;;;4994062;28;20071;-52
2021/01/21 00:29:18;;;;;;;4.30;0.50;;;;;;;;;;4993176;28;20052;-51
2021/01/21 00:31:44;;;;;;;5.32;0.70;;;;;;;;;;4995307;28;20038;-53
2021/01/21 00:34:10;;;;;;;5.75;0.93;;;;;;;;;;4992103;28;20046;-54
2021/01/21 00:36:36;;;;;;;5.07;0.70;;;;;;;;;;4970332;28;20038;-55
2021/01/21 00:39:02;;;;;;;10.43;0.80;;;;;;;;;;4968748;28;20388;-53
2021/01/21 00:41:28;;;;;;;4.57;0.80;;;;;;;;;;4970085;28;20095;-55
2021/01/21 00:43:53;;;;;;;6.07;0.68;;;;;;;;;;4970608;28;20070;-53
2021/01/21 00:46:19;;;;;;;5.40;0.60;;;;;;;;;;4970341;28;20137;-53
2021/01/21 00:48:45;;;;;;;4.05;0.50;;;;;;;;;;4971516;28;20136;-55
2021/01/21 00:51:11;;;;;;;2.38;0.77;;;;;;;;;;4972178;28;20053;-55
2021/01/21 00:53:37;;;;;;;7.07;0.88;;;;;;;;;;4972671;28;20041;-56
2021/01/21 00:56:03;;;;;;;4.68;0.70;;;;;;;;;;4972981;28;20101;-55
2021/01/21 00:58:29;;;;;;;2.03;0.73;;;;;;;;;;4971198;28;20046;-55
2021/01/21 01:00:55;;;;;;;11.32;0.85;;;;;;;;;;4969384;28;20046;-54
2021/01/21 01:03:21;;;;;;;3.85;0.57;;;;;;;;;;4971310;28;20093;-55
2021/01/21 01:05:47;;;;;;;5.55;0.70;;;;;;;;;;4970249;28;20638;-56
2021/01/21 01:08:12;;;;;;;4.78;1.05;;;;;;;;;;4972773;28;20043;-55
2021/01/21 01:10:38;;;;;;;7.40;0.70;;;;;;;;;;4970090;28;20843;-55
2021/01/21 01:13:04;;;;;;;2.40;0.40;;;;;;;;;;4972769;28;20039;-56
2021/01/21 01:15:32;;;;;;;1.60;0.50;;;;;;;;;;4973241;28;22105;-56
2021/01/21 01:17:58;;;;;;;0.70;0.40;;;;;;;;;;4971596;28;20077;-53
2021/01/21 01:20:24;;;;;;;5.90;0.57;;;;;;;;;;4967944;28;20858;-53
2021/01/21 01:22:51;;;;;;;1.17;0.40;;;;;;;;;;4969718;28;20059;-52
2021/01/21 01:25:18;;;;;;;1.90;0.50;;;;;;;;;;4971483;28;20360;-54
2021/01/21 01:27:43;;;;;;;3.25;0.40;;;;;;;;;;4971806;28;20068;-55
2021/01/21 01:30:11;;;;;;;4.18;0.52;;;;;;;;;;4970878;28;20039;-56
2021/01/21 01:32:37;;;;;;;0.63;0.30;;;;;;;;;;4970986;28;20042;-57
2021/01/21 01:35:03;;;;;;;2.75;0.40;;;;;;;;;;4981593;28;20049;-57
2021/01/21 01:37:31;;;;;;;6.93;0.95;;;;;;;;;;4991943;28;20709;-55
2021/01/21 01:39:57;;;;;;;1.25;0.40;;;;;;;;;;4992041;28;20034;-56
2021/01/21 01:42:23;;;;;;;0.88;0.30;;;;;;;;;;4991718;28;20050;-53
2021/01/21 01:44:49;;;;;;;2.45;0.50;;;;;;;;;;4993158;28;20042;-55
2021/01/21 01:47:15;;;;;;;0.70;0.30;;;;;;;;;;4993972;28;20038;-56
2021/01/21 01:49:42;;;;;;;2.20;0.57;;;;;;;;;;4993410;28;20053;-53
2021/01/21 01:52:08;;;;;;;6.30;0.60;;;;;;;;;;4992833;28;22201;-53
2021/01/21 01:54:33;;;;;;;3.78;0.77;;;;;;;;;;4991916;28;20161;-58
2021/01/21 01:57:01;;;;;;;4.95;0.68;;;;;;;;;;4994422;28;20690;-53
2021/01/21 01:59:28;;;;;;;2.60;0.30;;;;;;;;;;4991182;28;20100;-54
2021/01/21 02:01:54;;;;;;;4.30;0.60;;;;;;;;;;4992428;28;21939;-52
2021/01/21 02:04:20;;;;;;;4.38;0.52;;;;;;;;;;4993828;28;20494;-54
2021/01/21 02:06:46;;;;;;;1.98;0.40;;;;;;;;;;4993459;28;20042;-55
2021/01/21 02:09:12;;;;;;;3.10;0.50;;;;;;;;;;4992532;28;20104;-55
2021/01/21 02:11:54;;;;;;;2.83;0.43;;;;;;;;;;4990845;28;20038;-52
2021/01/21 02:14:22;;;;;;;4.68;0.73;;;;;;;;;;4992258;28;20038;-51
2021/01/21 02:17:01;;;;;;;2.67;0.50;;;;;;;;;;4992991;28;20083;-54
2021/01/21 02:19:44;;;;;;;5.20;0.60;;;;;;;;;;4992627;28;20451;-53
2021/01/21 02:22:28;;;;;;;1.98;0.57;;;;;;;;;;4992835;28;20046;-56
2021/01/21 02:25:04;;;;;;;4.75;0.60;;;;;;;;;;4991841;28;20685;-54
2021/01/21 02:27:40;;;;;;;1.45;0.50;;;;;;;;;;4991817;28;20030;-55
2021/01/21 02:30:10;;;;;;;3.45;0.63;;;;;;;;;;4992765;28;20427;-55
2021/01/21 02:32:51;;;;;;;5.00;0.60;;;;;;;;;;4991484;28;20047;-53
2021/01/21 02:35:18;;;;;;;3.67;0.60;;;;;;;;;;4985396;28;20042;-53
2021/01/21 02:37:48;;;;;;;4.32;0.60;;;;;;;;;;4987831;28;20093;-53
2021/01/21 02:40:14;;;;;;;5.68;0.80;;;;;;;;;;4987952;28;20143;-53
2021/01/21 02:42:47;;;;;;;5.05;0.70;;;;;;;;;;4989218;28;20547;-56
2021/01/21 02:45:13;;;;;;;6.25;0.93;;;;;;;;;;4988415;28;20057;-55
2021/01/21 02:47:39;;;;;;;6.72;0.70;;;;;;;;;;4987679;28;20042;-55
2021/01/21 02:50:05;;;;;;;8.77;0.98;;;;;;;;;;4988255;28;20050;-56
2021/01/21 02:52:45;;;;;;;2.88;0.50;;;;;;;;;;4984639;28;20035;-56
2021/01/21 02:55:14;;;;;;;3.67;0.80;;;;;;;;;;4988306;28;20292;-56
2021/01/21 02:57:44;;;;;;;4.45;0.70;;;;;;;;;;4987490;28;20038;-56
2021/01/21 03:00:11;;;;;;;2.75;0.55;;;;;;;;;;4988454;28;20042;-53
2021/01/21 03:02:38;;;;;;;1.85;0.50;;;;;;;;;;4989433;28;20053;-55
2021/01/21 03:05:05;;;;;;;2.90;0.60;;;;;;;;;;4988435;28;20120;-55
2021/01/21 03:07:31;;;;;;;4.40;0.73;;;;;;;;;;4987139;28;20437;-54
2021/01/21 03:09:57;;;;;;;2.90;0.63;;;;;;;;;;4987924;28;20042;-52
2021/01/21 03:12:24;;;;;;;3.03;0.50;;;;;;;;;;4989393;28;20876;-55
2021/01/21 03:14:51;;;;;;;6.35;0.60;;;;;;;;;;4991701;28;20503;-53
2021/01/21 03:17:21;;;;;;;2.53;0.50;;;;;;;;;;4989395;28;20081;-54
2021/01/21 03:19:47;;;;;;;6.85;0.60;;;;;;;;;;4990477;28;20124;-53
2021/01/21 03:22:13;;;;;;;2.63;0.50;;;;;;;;;;4990195;28;20042;-53
2021/01/21 03:24:39;;;;;;;3.13;0.60;;;;;;;;;;4988055;28;20050;-55
2021/01/21 03:27:05;;;;;;;1.27;0.40;;;;;;;;;;4990551;28;20041;-54
2021/01/21 03:29:31;;;;;;;4.45;0.68;;;;;;;;;;4990326;28;20418;-53
2021/01/21 03:31:57;;;;;;;1.58;0.52;;;;;;;;;;4992099;28;20054;-52
2021/01/21 03:34:23;;;;;;;3.17;0.68;;;;;;;;;;4988577;28;20779;-53
2021/01/21 03:36:49;;;;;;;2.10;0.50;;;;;;;;;;4988424;28;20857;-55
2021/01/21 03:39:15;;;;;;;2.13;0.60;;;;;;;;;;4989197;28;20042;-52
2021/01/21 03:41:41;;;;;;;3.55;0.63;;;;;;;;;;4988643;28;20034;-54
2021/01/21 03:44:07;;;;;;;5.50;0.77;;;;;;;;;;4988595;28;20073;-53
2021/01/21 03:46:32;;;;;;;4.63;0.77;;;;;;;;;;4991503;28;20229;-56
2021/01/21 03:48:59;;;;;;;1.75;0.50;;;;;;;;;;4993943;28;20034;-56
2021/01/21 03:51:25;;;;;;;5.38;0.57;;;;;;;;;;4995211;28;20045;-55
2021/01/21 03:53:51;;;;;;;1.42;0.50;;;;;;;;;;4996103;28;20042;-55
2021/01/21 03:56:17;;;;;;;2.33;0.50;;;;;;;;;;4992523;28;20076;-54
2021/01/21 03:58:43;;;;;;;1.52;0.45;;;;;;;;;;4994104;28;20596;-53
2021/01/21 04:01:09;;;;;;;1.70;0.43;;;;;;;;;;4993752;28;20049;-54
2021/01/21 04:03:35;;;;;;;1.25;0.40;;;;;;;;;;4985823;28;20042;-52
2021/01/21 04:06:01;;;;;;;1.60;0.60;;;;;;;;;;4993187;28;20053;-54
2021/01/21 04:08:27;;;;;;;3.75;0.60;;;;;;;;;;4991400;28;20053;-55
2021/01/21 04:10:53;;;;;;;3.63;0.80;;;;;;;;;;4993892;28;20049;-53
2021/01/21 04:13:18;;;;;;;5.13;0.82;;;;;;;;;;4991426;28;20042;-53
2021/01/21 04:15:47;;;;;;;4.32;0.50;;;;;;;;;;4991782;28;20045;-55
2021/01/21 04:18:13;;;;;;;4.68;0.68;;;;;;;;;;4992104;28;20085;-52
2021/01/21 04:20:39;;;;;;;2.95;0.40;;;;;;;;;;4991674;28;20442;-55
2021/01/21 04:23:06;;;;;;;0.98;0.40;;;;;;;;;;4975204;28;20043;-55
2021/01/21 04:25:32;;;;;;;2.92;0.50;;;;;;;;;;4990532;28;21228;-55
2021/01/21 04:27:58;;;;;;;10.50;0.60;;;;;;;;;;4977549;28;20137;-55
2021/01/21 04:30:23;;;;;;;2.42;0.70;;;;;;;;;;4992731;28;20382;-54
2021/01/21 04:32:49;;;;;;;2.80;0.68;;;;;;;;;;4993218;28;20045;-54
2021/01/21 04:35:15;;;;;;;2.60;0.60;;;;;;;;;;4994500;28;20073;-55
2021/01/21 04:37:41;;;;;;;7.97;0.70;;;;;;;;;;4994523;28;20048;-55
2021/01/21 04:40:08;;;;;;;5.30;0.50;;;;;;;;;;4992130;28;20598;-52
2021/01/21 04:42:34;;;;;;;1.05;0.40;;;;;;;;;;4992073;28;20434;-53
2021/01/21 04:45:00;;;;;;;1.55;0.50;;;;;;;;;;4993003;28;20447;-56
2021/01/21 04:47:28;;;;;;;3.10;0.50;;;;;;;;;;4992330;28;20076;-53
2021/01/21 04:49:54;;;;;;;2.15;0.50;;;;;;;;;;4991438;28;20045;-55
2021/01/21 04:52:21;;;;;;;2.05;0.70;;;;;;;;;;4994690;28;20491;-54
2021/01/21 04:55:00;;;;;;;3.00;0.50;;;;;;;;;;4993031;28;20562;-56
2021/01/21 04:57:32;;;;;;;2.65;0.60;;;;;;;;;;4991749;28;20042;-56
2021/01/21 04:59:59;;;;;;;8.30;2.15;;;;;;;;;;4993927;28;20038;-57
2021/01/21 05:02:25;;;;;;;1.70;0.55;;;;;;;;;;4994200;28;20041;-56
2021/01/21 05:04:51;;;;;;;1.35;0.32;;;;;;;;;;4994168;28;20104;-57
2021/01/21 05:07:17;;;;;;;1.75;0.40;;;;;;;;;;4995935;28;20050;-56
2021/01/21 05:09:42;;;;;;;1.63;0.50;;;;;;;;;;4994113;28;20053;-57
2021/01/21 05:12:08;;;;;;;0.75;0.30;;;;;;;;;;4994193;28;20037;-57
2021/01/21 05:14:34;;;;;;;0.43;0.35;;;;;;;;;;4993552;28;20031;-55
2021/01/21 05:17:00;;;;;;;0.63;0.30;;;;;;;;;;4992900;28;20042;-54
2021/01/21 05:19:26;;;;;;;1.85;0.45;;;;;;;;;;4992241;28;20042;-54
2021/01/21 05:21:52;;;;;;;1.20;0.40;;;;;;;;;;4992801;28;20065;-54
2021/01/21 05:24:18;;;;;;;3.03;0.50;;;;;;;;;;4993128;28;20502;-56
2021/01/21 05:26:44;;;;;;;5.57;0.40;;;;;;;;;;4993296;28;20466;-55
2021/01/21 05:29:11;;;;;;;1.83;0.50;;;;;;;;;;4992221;28;20137;-55
2021/01/21 05:31:37;;;;;;;3.78;0.50;;;;;;;;;;4991842;28;20506;-57
2021/01/21 05:34:08;;;;;;;1.73;0.40;;;;;;;;;;4994219;28;20396;-54
2021/01/21 05:36:41;;;;;;;1.10;0.40;;;;;;;;;;4992288;28;20096;-53
2021/01/21 05:39:08;;;;;;;2.45;0.57;;;;;;;;;;4994017;28;20054;-55
2021/01/21 05:41:35;;;;;;;0.95;0.40;;;;;;;;;;4990953;28;20034;-53
2021/01/21 05:44:05;;;;;;;1.83;0.45;;;;;;;;;;4993626;28;20034;-56
2021/01/21 05:46:35;;;;;;;1.25;0.40;;;;;;;;;;4991509;28;20088;-55
2021/01/21 05:49:01;;;;;;;1.63;0.40;;;;;;;;;;4989398;28;20037;-57
2021/01/21 05:51:30;;;;;;;0.35;0.30;;;;;;;;;;4991965;28;20061;-57
2021/01/21 05:53:56;;;;;;;1.60;0.40;;;;;;;;;;4993462;28;20073;-53
2021/01/21 05:56:23;;;;;;;1.17;0.40;;;;;;;;;;4991341;28;20034;-56
2021/01/21 05:58:50;;;;;;;1.63;0.40;;;;;;;;;;4991965;28;20045;-55
2021/01/21 06:01:15;;;;;;;3.38;0.38;;;;;;;;;;4991176;28;20050;-53
2021/01/21 06:03:41;;;;;;;1.98;0.60;;;;;;;;;;4993629;28;20053;-57
2021/01/21 06:06:08;;;;;;;0.73;0.35;;;;;;;;;;4995519;28;20068;-56
2021/01/21 06:08:40;;;;;;;3.47;0.47;;;;;;;;;;4991082;28;20088;-55
2021/01/21 06:11:10;;;;;;;3.13;0.40;;;;;;;;;;4991660;28;20042;-55
2021/01/21 06:13:40;;;;;;;0.98;0.30;;;;;;;;;;4990942;28;20073;-54
2021/01/21 06:16:07;;;;;;;2.90;0.50;;;;;;;;;;4993732;28;21026;-56
2021/01/21 06:18:33;;;;;;;0.93;0.38;;;;;;;;;;4990265;28;20132;-57
2021/01/21 06:21:00;;;;;;;0.82;0.30;;;;;;;;;;4992609;28;20050;-57
2021/01/21 06:23:26;;;;;;;0.88;0.40;;;;;;;;;;4991883;28;20775;-56
2021/01/21 06:25:55;;;;;;;1.05;0.30;;;;;;;;;;4992887;28;20085;-53
2021/01/21 06:28:21;;;;;;;4.95;0.50;;;;;;;;;;4988811;28;20057;-55
2021/01/21 06:30:52;;;;;;;1.55;0.40;;;;;;;;;;4991516;28;20038;-56
2021/01/21 06:33:20;;;;;;;1.02;0.40;;;;;;;;;;4991635;28;20052;-54
2021/01/21 06:35:50;;;;;;;3.50;0.50;;;;;;;;;;4988711;28;20053;-56
2021/01/21 06:38:18;;;;;;;1.58;0.43;;;;;;;;;;4989485;28;20030;-57
2021/01/21 06:40:47;;;;;;;2.08;0.40;;;;;;;;;;4989844;28;20041;-57
2021/01/21 06:43:14;;;;;;;2.13;0.60;;;;;;;;;;4988620;28;20062;-57
2021/01/21 06:45:41;;;;;;;3.55;0.50;;;;;;;;;;4989565;28;20590;-57
2021/01/21 06:48:10;;;;;;;7.75;0.63;;;;;;;;;;4988992;28;20042;-56
2021/01/21 06:50:37;;;;;;;2.28;0.70;;;;;;;;;;4990557;28;20037;-54
2021/01/21 06:53:03;;;;;;;5.32;0.50;;;;;;;;;;4990046;28;20517;-55
2021/01/21 06:55:30;;;;;;;3.22;0.40;;;;;;;;;;4989573;28;20038;-56
2021/01/21 06:57:56;;;;;;;0.65;0.30;;;;;;;;;;4991048;28;20038;-56
2021/01/21 07:00:34;;;;;;;2.15;0.40;;;;;;;;;;4989086;28;20383;-56
2021/01/21 07:03:00;;;;;;;1.55;0.50;;;;;;;;;;4988742;28;20095;-54
2021/01/21 07:05:27;;;;;;;0.68;0.30;;;;;;;;;;4987967;28;20053;-57
2021/01/21 07:07:53;;;;;;;4.90;0.50;;;;;;;;;;4987678;28;20402;-54
2021/01/21 07:10:22;;;;;;;1.20;0.35;;;;;;;;;;4988130;28;20406;-56
2021/01/21 07:12:49;;;;;;;2.80;0.55;;;;;;;;;;4989748;28;20128;-55
2021/01/21 07:15:15;;;;;;;0.60;0.38;;;;;;;;;;4989869;28;20041;-56
2021/01/21 07:17:41;;;;;;;2.53;0.35;;;;;;;;;;4988783;28;20053;-53
2021/01/21 07:20:07;;;;;;;0.70;0.28;;;;;;;;;;4988670;28;20048;-53
2021/01/21 07:22:33;;;;;;;0.70;0.32;;;;;;;;;;4990779;28;20490;-56
2021/01/21 07:25:01;;;;;;;0.90;0.35;;;;;;;;;;4991747;28;20058;-54
2021/01/21 07:27:28;;;;;;;1.35;0.30;;;;;;;;;;4992370;28;20041;-56
2021/01/21 07:30:12;;;;;;;1.48;0.47;;;;;;;;;;4991225;28;20065;-56
2021/01/21 07:32:38;;;;;;;1.50;0.40;;;;;;;;;;4991818;28;20044;-53
2021/01/21 07:35:04;;;;;;;1.00;0.32;;;;;;;;;;4993309;28;20475;-57
2021/01/21 07:37:50;;;;;;;2.10;0.40;;;;;;;;;;4992817;28;20104;-56
2021/01/21 07:40:16;;;;;;;1.85;0.32;;;;;;;;;;4991130;28;20042;-55
2021/01/21 07:42:42;;;;;;;2.22;0.55;;;;;;;;;;4976996;28;20103;-56
2021/01/21 07:45:20;;;;;;;0.98;0.30;;;;;;;;;;4992599;28;20065;-55
2021/01/21 07:47:46;;;;;;;1.33;0.40;;;;;;;;;;4991148;28;20052;-56
2021/01/21 07:52:57;;;;;;;0.70;0.30;;;;;;;;;;4989708;28;20121;-53
2021/01/21 07:55:26;;;;;;;3.63;0.45;;;;;;;;;;4990407;28;20034;-55
2021/01/21 07:57:52;;;;;;;1.45;0.40;;;;;;;;;;4989644;28;20057;-56
2021/01/21 08:00:18;;;;;;;0.98;0.30;;;;;;;;;;4990050;28;20038;-54
2021/01/21 08:02:53;;;;;;;2.63;0.40;;;;;;;;;;4991585;28;20034;-55
2021/01/21 08:05:20;;;;;;;0.35;0.20;;;;;;;;;;4988542;28;20046;-55
2021/01/21 08:07:49;;;;;;;0.70;0.30;;;;;;;;;;4990964;28;20041;-54
2021/01/21 08:10:19;;;;;;;0.60;0.30;;;;;;;;;;4991131;28;20093;-53
2021/01/21 08:12:51;;;;;;;0.93;0.40;;;;;;;;;;4988956;28;20113;-53
2021/01/21 08:15:21;;;;;;;0.73;0.30;;;;;;;;;;4991219;28;20076;-56
2021/01/21 08:17:50;;;;;;;1.52;0.30;;;;;;;;;;4988238;28;20042;-56
2021/01/21 08:20:20;;;;;;;0.45;0.30;;;;;;;;;;4976572;28;20593;-53
2021/01/21 08:22:53;;;;;;;2.60;0.30;;;;;;;;;;4991245;28;20042;-55
2021/01/21 08:25:19;;;;;;;4.63;0.50;;;;;;;;;;4991273;28;20088;-54
2021/01/21 08:27:46;;;;;;;0.22;0.20;;;;;;;;;;4991329;28;20224;-54
2021/01/21 08:30:16;;;;;;;2.08;0.40;;;;;;;;;;4989457;28;20042;-55
2021/01/21 08:32:43;;;;;;;0.35;0.28;;;;;;;;;;4990369;28;20049;-55
2021/01/21 08:35:11;;;;;;;0.68;0.30;;;;;;;;;;4994179;28;20084;-54
2021/01/21 08:37:39;;;;;;;0.88;0.30;;;;;;;;;;4992758;28;20130;-54
2021/01/21 08:40:05;;;;;;;1.83;0.40;;;;;;;;;;4993870;28;20038;-56
2021/01/21 08:42:31;;;;;;;0.77;0.30;;;;;;;;;;4975433;28;20087;-55
2021/01/21 08:44:57;;;;;;;1.13;0.30;;;;;;;;;;4994877;28;20536;-54
2021/01/21 08:47:23;;;;;;;0.38;0.20;;;;;;;;;;4993665;28;20033;-57
2021/01/21 08:49:52;;;;;;;0.75;0.40;;;;;;;;;;4993001;28;20045;-54
2021/01/21 08:52:18;;;;;;;1.63;0.38;;;;;;;;;;4976341;28;20050;-56
2021/01/21 08:54:53;;;;;;;0.30;0.28;;;;;;;;;;4992365;28;20058;-54
2021/01/21 08:57:23;;;;;;;0.63;0.30;;;;;;;;;;4991185;28;20129;-56
2021/01/21 08:59:49;;;;;;;0.75;0.40;;;;;;;;;;4992692;28;20624;-55
2021/01/21 09:02:15;;;;;;;4.10;0.47;;;;;;;;;;4994316;28;20049;-55
2021/01/21 09:04:41;;;;;;;0.85;0.40;;;;;;;;;;4994777;28;20045;-55
2021/01/21 09:07:09;;;;;;;1.30;0.40;;;;;;;;;;4995603;28;20739;-52
2021/01/21 09:09:36;;;;;;;0.55;0.30;;;;;;;;;;4991947;28;20045;-51
2021/01/21 09:12:19;;;;;;;0.32;0.22;;;;;;;;;;4992115;28;20063;-55
2021/01/21 09:14:58;;;;;;;0.70;0.30;;;;;;;;;;4992010;28;20045;-53
2021/01/21 09:17:25;;;;;;;1.45;0.40;;;;;;;;;;4993996;28;20081;-52
2021/01/21 09:19:51;;;;;;;0.75;0.30;;;;;;;;;;4990766;28;20407;-54
2021/01/21 09:22:18;;;;;;;0.22;0.20;;;;;;;;;;4994024;28;20033;-55
2021/01/21 09:24:57;;;;;;;1.10;0.40;;;;;;;;;;4992856;28;20046;-53
2021/01/21 09:27:24;;;;;;;0.95;0.30;;;;;;;;;;4992166;28;20052;-53
2021/01/21 09:29:53;;;;;;;1.08;0.38;;;;;;;;;;4993545;28;20554;-52
2021/01/21 09:32:23;;;;;;;0.70;0.32;;;;;;;;;;4993102;28;20053;-52
2021/01/21 09:34:59;;;;;;;0.60;0.30;;;;;;;;;;4991820;28;20054;-55
2021/01/21 09:37:25;;;;;;;0.70;0.30;;;;;;;;;;4992883;28;20046;-53
2021/01/21 09:39:52;;;;;;;0.35;0.20;;;;;;;;;;4992892;28;20041;-53
2021/01/21 09:42:20;;;;;;;0.95;0.30;;;;;;;;;;4993233;28;20514;-53
2021/01/21 09:44:45;;;;;;;0.98;0.30;;;;;;;;;;4992152;28;20046;-55
2021/01/21 09:47:12;;;;;;;1.50;0.50;;;;;;;;;;4993487;28;20103;-52
2021/01/21 09:49:40;;;;;;;0.30;0.20;;;;;;;;;;4991802;28;20141;-51
2021/01/21 09:52:06;;;;;;;2.00;0.30;;;;;;;;;;4991471;28;20041;-53
2021/01/21 09:54:32;;;;;;;0.45;0.28;;;;;;;;;;4991995;28;20045;-54
2021/01/21 09:56:58;;;;;;;1.00;0.32;;;;;;;;;;4991385;28;20045;-54
2021/01/21 09:59:24;;;;;;;2.35;0.50;;;;;;;;;;4988551;28;20072;-53
2021/01/21 10:01:50;;;;;;;0.40;0.20;;;;;;;;;;4992011;28;20510;-54
2021/01/21 10:04:16;;;;;;;0.65;0.30;;;;;;;;;;4990136;28;20164;-52
2021/01/21 10:06:42;;;;;;;0.88;0.30;;;;;;;;;;4989487;28;20061;-51
2021/01/21 10:09:08;;;;;;;1.40;0.30;;;;;;;;;;4988026;28;20061;-53
2021/01/21 10:11:34;;;;;;;0.20;0.20;;;;;;;;;;4989655;28;20072;-54
2021/01/21 10:14:00;;;;;;;1.33;0.45;;;;;;;;;;4991298;28;20042;-54
2021/01/21 10:16:26;;;;;;;0.85;0.38;;;;;;;;;;4990029;28;20055;-54
2021/01/21 10:18:52;;;;;;;1.02;0.30;;;;;;;;;;4992100;28;20042;-53
2021/01/21 10:21:18;;;;;;;4.57;0.35;;;;;;;;;;4993345;28;20039;-55
2021/01/21 10:23:44;;;;;;;0.82;0.30;;;;;;;;;;4993922;28;20034;-52
2021/01/21 10:26:10;;;;;;;1.45;0.50;;;;;;;;;;4993092;28;20048;-54
2021/01/21 10:28:36;;;;;;;0.70;0.43;;;;;;;;;;4992675;28;20122;-55
2021/01/21 10:31:01;;;;;;;0.95;0.30;;;;;;;;;;4992550;28;20069;-54
2021/01/21 10:33:27;;;;;;;0.60;0.30;;;;;;;;;;4992846;28;20093;-55
2021/01/21 10:35:53;;;;;;;0.68;0.20;;;;;;;;;;4991719;28;20054;-54
2021/01/21 10:38:19;;;;;;;0.30;0.20;;;;;;;;;;4991917;28;20045;-55
2021/01/21 10:40:45;;;;;;;0.77;0.40;;;;;;;;;;4992228;28;20169;-55
2021/01/21 10:43:11;;;;;;;0.38;0.30;;;;;;;;;;4993814;28;20145;-55
2021/01/21 10:45:37;;;;;;;1.42;0.35;;;;;;;;;;4992932;28;20142;-53
2021/01/21 10:48:03;;;;;;;0.57;0.30;;;;;;;;;;4992049;28;20125;-52
2021/01/21 10:50:28;;;;;;;0.25;0.20;;;;;;;;;;4992604;28;20128;-55
2021/01/21 10:52:54;;;;;;;1.20;0.38;;;;;;;;;;4993442;28;20081;-54
2021/01/21 10:55:20;;;;;;;1.00;0.35;;;;;;;;;;4990283;28;20034;-55
2021/01/21 10:57:46;;;;;;;1.08;0.40;;;;;;;;;;4992681;28;20030;-52
2021/01/21 11:00:13;;;;;;;0.45;0.25;;;;;;;;;;4992827;28;20442;-53
2021/01/21 11:02:38;;;;;;;1.00;0.30;;;;;;;;;;4992381;28;20545;-55
2021/01/21 11:05:05;;;;;;;0.98;0.30;;;;;;;;;;4993470;28;20050;-54
2021/01/21 11:07:31;;;;;;;0.55;0.30;;;;;;;;;;4990716;28;20065;-53
2021/01/21 11:09:57;;;;;;;1.02;0.40;;;;;;;;;;4975758;28;20041;-56
2021/01/21 11:12:22;;;;;;;4.70;0.73;;;;;;;;;;4991768;28;20054;-52
2021/01/21 11:14:51;;;;;;;1.27;0.40;;;;;;;;;;4991897;28;20081;-53
2021/01/21 11:17:16;;;;;;;0.55;0.30;;;;;;;;;;4994398;28;20497;-53
2021/01/21 11:19:42;;;;;;;0.47;0.22;;;;;;;;;;4990345;28;20129;-56
2021/01/21 11:22:10;;;;;;;2.33;0.40;;;;;;;;;;4992281;28;20042;-55
2021/01/21 11:24:36;;;;;;;1.02;0.60;;;;;;;;;;4989484;28;20038;-53
2021/01/21 11:27:02;;;;;;;0.57;0.20;;;;;;;;;;4993552;28;20109;-56
2021/01/21 11:29:28;;;;;;;0.73;0.30;;;;;;;;;;4991286;28;20100;-55
2021/01/21 11:31:54;;;;;;;1.25;0.30;;;;;;;;;;4992276;28;20043;-56
2021/01/21 11:34:20;;;;;;;0.85;0.30;;;;;;;;;;4991478;28;20069;-53
2021/01/21 11:36:47;;;;;;;1.65;0.50;;;;;;;;;;4992075;28;20499;-55
2021/01/21 11:39:13;;;;;;;0.85;0.32;;;;;;;;;;4991056;28;20104;-52
2021/01/21 11:41:39;;;;;;;0.68;0.30;;;;;;;;;;4991187;28;20046;-55
2021/01/21 11:44:06;;;;;;;1.17;0.38;;;;;;;;;;4992274;28;20045;-55
2021/01/21 11:46:32;;;;;;;1.17;0.30;;;;;;;;;;4989774;28;20537;-54
2021/01/21 11:48:58;;;;;;;0.73;0.30;;;;;;;;;;4990657;28;20170;-56
2021/01/21 11:51:23;;;;;;;0.77;0.30;;;;;;;;;;4991293;28;20113;-53
2021/01/21 11:53:49;;;;;;;2.78;0.32;;;;;;;;;;4991612;28;20041;-56
2021/01/21 11:56:16;;;;;;;1.15;0.40;;;;;;;;;;4992271;28;20636;-56
2021/01/21 11:58:42;;;;;;;0.90;0.30;;;;;;;;;;4990633;28;20487;-53
2021/01/21 12:01:08;;;;;;;2.00;0.40;;;;;;;;;;4991643;28;20049;-55
2021/01/21 12:03:34;;;;;;;1.55;0.38;;;;;;;;;;4989571;28;20085;-55
2021/01/21 12:06:01;;;;;;;3.30;0.52;;;;;;;;;;4990652;28;20904;-54
2021/01/21 12:08:27;;;;;;;0.47;0.28;;;;;;;;;;4995436;28;20068;-52
2021/01/21 12:10:53;;;;;;;1.77;0.50;;;;;;;;;;4996424;28;20109;-55
2021/01/21 12:13:19;;;;;;;1.58;0.30;;;;;;;;;;4994505;28;20060;-54
2021/01/21 12:15:45;;;;;;;2.20;0.40;;;;;;;;;;4993014;28;20512;-54
2021/01/21 12:18:11;;;;;;;0.95;0.40;;;;;;;;;;4994589;28;20735;-56
2021/01/21 12:20:37;;;;;;;1.30;0.40;;;;;;;;;;4994371;28;20375;-57
2021/01/21 12:23:03;;;;;;;1.65;0.40;;;;;;;;;;4995415;28;20041;-54
2021/01/21 12:25:29;;;;;;;1.65;0.40;;;;;;;;;;4994716;28;20065;-54
2021/01/21 12:27:55;;;;;;;0.65;0.30;;;;;;;;;;4994844;28;20124;-52
2021/01/21 12:30:21;;;;;;;2.28;0.40;;;;;;;;;;4994802;28;20056;-56
2021/01/21 12:32:47;;;;;;;0.47;0.30;;;;;;;;;;4994217;28;20080;-54
2021/01/21 12:35:13;;;;;;;0.70;0.30;;;;;;;;;;4994497;28;20050;-54
2021/01/21 12:37:39;;;;;;;1.23;0.38;;;;;;;;;;4994866;28;20038;-54
2021/01/21 12:40:05;;;;;;;3.83;0.40;;;;;;;;;;4994799;28;20051;-54
2021/01/21 12:42:31;;;;;;;0.65;0.30;;;;;;;;;;4995396;28;20049;-57
2021/01/21 12:44:57;;;;;;;2.67;0.50;;;;;;;;;;4995582;28;20041;-56
2021/01/21 12:47:23;;;;;;;0.28;0.28;;;;;;;;;;4993992;28;20641;-55
2021/01/21 12:49:49;;;;;;;2.55;0.55;;;;;;;;;;4994508;28;20042;-55
2021/01/21 12:52:15;;;;;;;2.30;0.40;;;;;;;;;;4993923;28;20042;-55
2021/01/21 12:54:47;;;;;;;1.90;0.30;;;;;;;;;;4993662;28;20089;-56
2021/01/21 12:57:13;;;;;;;1.45;0.60;;;;;;;;;;4994981;28;20123;-54
2021/01/21 12:59:40;;;;;;;0.63;0.30;;;;;;;;;;4992240;28;20041;-56
2021/01/21 13:02:06;;;;;;;1.00;0.30;;;;;;;;;;4993933;28;20033;-56
2021/01/21 13:04:33;;;;;;;0.90;0.35;;;;;;;;;;4991581;28;20046;-55
2021/01/21 13:06:58;;;;;;;1.75;0.30;;;;;;;;;;4997843;28;20045;-56
2021/01/21 13:09:24;;;;;;;18.83;7.10;;;;;;;;;;4994719;28;20034;-57
2021/01/21 13:11:50;;;;;;;1.25;0.30;;;;;;;;;;4975868;28;20056;-56
2021/01/21 13:14:16;;;;;;;2.05;0.57;;;;;;;;;;4985160;28;20058;-55
2021/01/21 13:16:42;;;;;;;5.82;2.20;;;;;;;;;;4991985;28;20053;-55
2021/01/21 13:19:08;;;;;;;1.10;0.40;;;;;;;;;;4993993;28;20574;-52
2021/01/21 13:21:34;;;;;;;2.92;0.50;;;;;;;;;;4989407;28;20042;-58
2021/01/21 13:24:00;;;;;;;1.45;0.73;;;;;;;;;;4994211;28;20187;-54
2021/01/21 13:26:26;;;;;;;1.60;0.40;;;;;;;;;;4993658;28;20042;-54
2021/01/21 13:28:52;;;;;;;1.40;0.40;;;;;;;;;;4994269;28;20048;-55
2021/01/21 13:31:18;;;;;;;1.63;0.35;;;;;;;;;;4991666;28;20514;-53
2021/01/21 13:33:44;;;;;;;4.30;0.40;;;;;;;;;;4992751;28;20472;-54
2021/01/21 13:36:10;;;;;;;1.80;0.47;;;;;;;;;;4993250;28;20165;-55
2021/01/21 13:38:36;;;;;;;3.20;0.68;;;;;;;;;;4987890;28;20120;-52
2021/01/21 13:41:02;;;;;;;2.60;0.60;;;;;;;;;;4994575;28;20585;-55
2021/01/21 13:43:28;;;;;;;1.40;0.45;;;;;;;;;;4992563;28;20070;-53
2021/01/21 13:45:54;;;;;;;0.90;0.40;;;;;;;;;;4991894;28;20444;-53
2021/01/21 13:48:20;;;;;;;1.05;0.40;;;;;;;;;;4990859;28;20042;-54
2021/01/21 13:50:46;;;;;;;8.02;0.52;;;;;;;;;;4993673;28;21043;-54
2021/01/21 13:53:12;;;;;;;3.03;0.50;;;;;;;;;;4994294;28;20100;-56
2021/01/21 13:55:38;;;;;;;2.20;0.40;;;;;;;;;;4991322;28;20042;-56
2021/01/21 13:58:04;;;;;;;4.18;0.43;;;;;;;;;;4993113;28;20088;-56
2021/01/21 14:00:29;;;;;;;9.95;0.63;;;;;;;;;;4986940;28;20037;-53
2021/01/21 14:02:55;;;;;;;2.33;0.50;;;;;;;;;;4982707;28;20729;-55
2021/01/21 14:05:21;;;;;;;1.17;0.40;;;;;;;;;;4991567;28;20050;-55
2021/01/21 14:07:47;;;;;;;3.65;0.60;;;;;;;;;;4993752;28;20046;-54
2021/01/21 14:10:13;;;;;;;8.70;0.68;;;;;;;;;;4991795;28;20072;-55
2021/01/21 14:12:39;;;;;;;6.57;0.57;;;;;;;;;;4992718;28;20042;-57
2021/01/21 14:15:05;;;;;;;5.50;0.60;;;;;;;;;;4991577;28;20053;-53
2021/01/21 14:17:31;;;;;;;1.65;0.50;;;;;;;;;;4991537;28;20394;-57
2021/01/21 14:19:57;;;;;;;6.43;0.70;;;;;;;;;;4991365;28;20037;-57
2021/01/21 14:22:23;;;;;;;2.30;0.60;;;;;;;;;;4992572;28;20037;-53
2021/01/21 14:24:49;;;;;;;2.65;0.63;;;;;;;;;;4993159;28;20065;-55
2021/01/21 14:27:14;;;;;;;3.60;0.52;;;;;;;;;;4994021;28;20049;-57
2021/01/21 14:29:40;;;;;;;2.80;0.70;;;;;;;;;;4991413;28;20196;-54
2021/01/21 14:32:06;;;;;;;1.85;0.57;;;;;;;;;;4975545;28;20120;-53
2021/01/21 14:34:32;;;;;;;3.53;0.73;;;;;;;;;;4994145;28;20045;-54
2021/01/21 14:36:58;;;;;;;3.63;0.80;;;;;;;;;;4993813;28;20052;-56
2021/01/21 14:39:24;;;;;;;3.78;0.70;;;;;;;;;;4993248;28;20061;-56
2021/01/21 14:41:50;;;;;;;4.63;0.70;;;;;;;;;;4991941;28;20038;-56
2021/01/21 14:44:16;;;;;;;4.50;0.90;;;;;;;;;;4993200;28;20031;-57